createdAt,value
2022-09-10T00:01:41.172Z,100755.34
2022-09-10T00:04:26.786Z,100756.28
2022-09-10T00:07:12.788Z,100742.44
2022-09-10T00:09:58.494Z,100732.91
2022-09-10T00:12:44.146Z,100744.88
2022-09-10T00:15:30.397Z,100744.16
2022-09-10T00:18:17.674Z,100744.44
2022-09-10T00:21:05.798Z,100746.56
2022-09-10T00:23:51.498Z,100746.56
2022-09-10T00:26:40.277Z,100741.06
2022-09-10T00:29:25.605Z,100749.22
2022-09-10T00:32:11.387Z,100747.09
2022-09-10T00:34:56.986Z,100751.63
2022-09-10T00:37:42.786Z,100744.63
2022-09-10T00:40:28.598Z,100744.09
2022-09-10T00:43:16.419Z,100739.22
2022-09-10T00:46:01.505Z,100746.50
2022-09-10T00:48:46.782Z,100758.31
2022-09-10T00:51:35.574Z,100759.09
2022-09-10T00:54:23.886Z,100760.06
2022-09-10T00:57:12.461Z,100758.78
2022-09-10T01:00:00.259Z,100759.28
2022-09-10T01:02:45.408Z,100762.94
2022-09-10T01:05:30.758Z,100761.81
2022-09-10T01:08:16.889Z,100760.09
2022-09-10T01:11:08.411Z,100769.91
2022-09-10T01:14:13.305Z,100767.00
2022-09-10T01:17:18.430Z,100770.84
2022-09-10T01:20:22.628Z,100765.00
2022-09-10T01:23:27.026Z,100769.97
2022-09-10T01:26:36.519Z,100769.13
2022-09-10T01:29:31.025Z,100775.00
2022-09-10T01:32:24.352Z,100770.47
2022-09-10T01:35:29.375Z,100771.50
2022-09-10T01:38:24.010Z,100779.72
2022-09-10T01:41:10.375Z,100777.06
2022-09-10T01:43:56.558Z,100775.19
2022-09-10T01:46:58.548Z,100766.97
2022-09-10T01:49:44.001Z,100772.34
2022-09-10T01:53:01.797Z,100770.66
2022-09-10T01:56:03.856Z,100763.31
2022-09-10T01:58:49.306Z,100773.47
2022-09-10T02:01:43.616Z,100776.78
2022-09-10T02:04:29.920Z,100782.53
2022-09-10T02:07:15.937Z,100775.00
2022-09-10T02:10:02.708Z,100775.75
2022-09-10T02:12:49.016Z,100776.13
2022-09-10T02:15:34.509Z,100774.88
2022-09-10T02:18:21.402Z,100774.06
2022-09-10T02:21:07.220Z,100772.06
2022-09-10T02:23:56.781Z,100775.84
2022-09-10T02:26:43.418Z,100775.84
2022-09-10T02:29:29.219Z,100781.59
2022-09-10T02:32:14.871Z,100784.97
2022-09-10T02:35:00.428Z,100778.00
2022-09-10T02:37:46.400Z,100783.75
2022-09-10T02:40:32.141Z,100788.06
2022-09-10T02:43:18.102Z,100783.75
2022-09-10T02:46:07.254Z,100788.06
2022-09-10T02:48:55.001Z,100789.88
2022-09-10T02:51:42.764Z,100786.56
2022-09-10T02:54:28.909Z,100774.22
2022-09-10T02:57:16.889Z,100775.00
2022-09-10T03:00:03.243Z,100773.56
2022-09-10T03:02:48.490Z,100778.75
2022-09-10T03:05:38.281Z,100776.69
2022-09-10T03:08:23.580Z,100775.47
2022-09-10T03:11:09.854Z,100783.56
2022-09-10T03:13:56.004Z,100774.88
2022-09-10T03:16:41.180Z,100780.25
2022-09-10T03:19:27.038Z,100780.63
2022-09-10T03:22:12.183Z,100779.03
2022-09-10T03:24:58.657Z,100771.13
2022-09-10T03:27:43.829Z,100775.94
2022-09-10T03:30:29.471Z,100777.41
2022-09-10T03:33:15.634Z,100769.13
2022-09-10T03:36:01.871Z,100771.00
2022-09-10T03:38:46.904Z,100771.34
2022-09-10T03:41:32.564Z,100775.75
2022-09-10T03:44:17.867Z,100773.31
2022-09-10T03:47:03.005Z,100770.84
2022-09-10T03:49:50.625Z,100774.41
2022-09-10T03:52:35.791Z,100784.94
2022-09-10T03:55:22.092Z,100781.22
2022-09-10T03:58:07.433Z,100773.50
2022-09-10T04:00:52.842Z,100780.28
2022-09-10T04:03:38.145Z,100775.38
2022-09-10T04:06:23.659Z,100769.53
2022-09-10T04:09:08.845Z,100772.63
2022-09-10T04:11:54.322Z,100779.16
2022-09-10T04:14:39.560Z,100782.25
2022-09-10T04:17:25.326Z,100782.25
2022-09-10T04:20:10.559Z,100774.63
2022-09-10T04:22:56.672Z,100779.69
2022-09-10T04:25:42.032Z,100786.41
2022-09-10T04:28:27.477Z,100791.19
2022-09-10T04:31:12.855Z,100790.59
2022-09-10T04:34:01.334Z,100797.63
2022-09-10T04:36:46.566Z,100793.94
2022-09-10T04:39:32.453Z,100801.84
2022-09-10T04:42:20.226Z,100799.22
2022-09-10T04:45:06.291Z,100797.88
2022-09-10T04:47:53.080Z,100796.38
2022-09-10T04:50:54.090Z,100799.97
2022-09-10T04:53:46.624Z,100798.09
2022-09-10T04:56:32.028Z,100795.72
2022-09-10T04:59:17.394Z,100796.47
2022-09-10T05:02:03.695Z,100788.81
2022-09-10T05:04:49.120Z,100795.03
2022-09-10T05:07:34.552Z,100787.97
2022-09-10T05:10:20.452Z,100793.25
2022-09-10T05:13:05.818Z,100807.41
2022-09-10T05:15:51.192Z,100800.41
2022-09-10T05:18:36.435Z,100806.69
2022-09-10T05:21:21.604Z,100802.28
2022-09-10T05:24:06.838Z,100808.13
2022-09-10T05:26:51.982Z,100805.38
2022-09-10T05:29:36.991Z,100813.00
2022-09-10T05:32:22.609Z,100809.97
2022-09-10T05:35:08.615Z,100807.13
2022-09-10T05:37:56.068Z,100806.84
2022-09-10T05:40:41.982Z,100813.06
2022-09-10T05:43:27.687Z,100812.66
2022-09-10T05:46:12.961Z,100814.78
2022-09-10T05:48:58.417Z,100814.16
2022-09-10T05:51:43.793Z,100816.41
2022-09-10T05:54:28.939Z,100815.59
2022-09-10T05:57:14.306Z,100821.16
2022-09-10T06:00:03.479Z,100825.06
2022-09-10T06:02:48.607Z,100820.28
2022-09-10T06:05:34.292Z,100822.53
2022-09-10T06:08:23.313Z,100828.38
2022-09-10T06:11:09.928Z,100828.31
2022-09-10T06:13:55.378Z,100829.81
2022-09-10T06:16:41.015Z,100829.25
2022-09-10T06:19:26.214Z,100831.59
2022-09-10T06:22:11.783Z,100839.84
2022-09-10T06:24:56.907Z,100837.44
2022-09-10T06:27:42.081Z,100837.03
2022-09-10T06:30:28.229Z,100840.75
2022-09-10T06:33:16.768Z,100839.59
2022-09-10T06:36:03.285Z,100838.84
2022-09-10T06:38:49.308Z,100838.19
2022-09-10T06:41:34.600Z,100841.25
2022-09-10T06:44:22.258Z,100835.66
2022-09-10T18:22:53.277Z,100931.88
2022-09-10T18:25:38.433Z,100935.38
2022-09-10T18:28:24.380Z,100946.50
2022-09-10T18:31:10.820Z,100947.47
2022-09-10T18:33:56.239Z,100956.16
2022-09-10T18:36:42.036Z,100956.16
2022-09-10T18:39:27.792Z,100956.28
2022-09-10T18:42:13.714Z,100959.97
2022-09-10T18:44:59.344Z,100958.50
2022-09-10T18:47:45.457Z,100958.09
2022-09-10T18:50:32.113Z,100972.31
2022-09-10T18:53:18.224Z,100971.69
2022-09-10T18:56:10.571Z,100975.84
2022-09-10T18:59:07.153Z,100966.06
2022-09-10T19:01:54.049Z,100979.06
2022-09-10T19:05:00.498Z,100975.78
2022-09-10T19:07:46.569Z,100986.16
2022-09-10T19:10:31.845Z,100984.25
2022-09-10T19:13:17.189Z,100986.06
2022-09-10T19:16:03.680Z,100993.22
2022-09-10T19:18:53.008Z,100998.28
2022-09-10T19:21:38.322Z,101006.22
2022-09-10T19:24:37.917Z,101004.75
2022-09-10T19:27:29.352Z,101008.91
2022-09-10T19:30:14.928Z,101010.88
2022-09-10T19:33:00.461Z,101011.63
2022-09-10T19:35:45.901Z,101008.09
2022-09-10T19:38:46.684Z,101014.75
2022-09-10T19:41:33.113Z,101013.81
2022-09-10T19:44:18.601Z,101007.88
2022-09-10T19:47:04.187Z,101009.56
2022-09-10T19:49:49.655Z,101004.47
2022-09-10T19:52:35.281Z,101008.81
2022-09-10T19:55:21.197Z,101005.34
2022-09-10T19:58:07.012Z,101012.13
2022-09-10T20:00:52.212Z,101018.19
2022-09-10T20:03:37.963Z,101014.38
2022-09-10T20:06:25.275Z,101011.94
2022-09-10T20:09:10.833Z,101011.69
2022-09-10T20:11:56.357Z,101016.50
2022-09-10T20:14:41.508Z,101014.63
2022-09-10T20:17:26.784Z,101008.88
2022-09-10T20:20:12.111Z,101008.47
2022-09-10T20:23:00.662Z,101008.19
2022-09-10T20:25:46.030Z,101010.66
2022-09-10T20:28:31.328Z,101011.97
2022-09-10T20:31:17.355Z,101015.94
2022-09-10T20:34:04.277Z,101015.94
2022-09-10T20:36:52.987Z,101008.88
2022-09-10T20:39:42.022Z,101008.97
2022-09-10T20:42:27.845Z,101009.84
2022-09-10T20:45:13.194Z,101006.78
2022-09-10T20:48:00.246Z,101006.03
2022-09-10T20:50:52.134Z,101000.41
2022-09-10T20:53:38.375Z,101007.13
2022-09-10T20:56:23.709Z,101000.03
2022-09-10T20:59:10.920Z,101015.06
2022-09-10T21:01:56.627Z,101015.81
2022-09-10T21:04:42.114Z,101021.00
2022-09-10T21:07:28.414Z,101020.25
2022-09-10T21:10:13.653Z,101013.25
2022-09-10T21:12:59.017Z,101009.22
2022-09-10T21:15:44.291Z,101018.00
2022-09-10T21:18:29.777Z,101018.94
2022-09-10T21:21:16.245Z,101028.75
2022-09-10T21:24:02.529Z,101030.66
2022-09-10T21:26:49.227Z,101029.66
2022-09-10T21:29:36.163Z,101039.38
2022-09-10T21:32:23.304Z,101037.97
2022-09-10T21:35:08.907Z,101047.63
2022-09-10T21:37:54.018Z,101052.72
2022-09-10T21:40:39.053Z,101057.06
2022-09-10T21:43:25.719Z,101043.44
2022-09-10T21:46:11.672Z,101048.84
2022-09-10T21:48:56.899Z,101064.06
2022-09-10T21:51:42.582Z,101060.25
2022-09-10T21:54:28.136Z,101061.78
2022-09-10T21:57:13.567Z,101063.88
2022-09-10T21:59:59.057Z,101067.56
2022-09-10T22:02:44.228Z,101069.88
2022-09-10T22:05:29.921Z,101079.00
2022-09-10T22:08:15.399Z,101080.50
2022-09-10T22:11:04.992Z,101079.91
2022-09-10T22:13:51.853Z,101078.44
2022-09-10T22:16:37.154Z,101079.09
2022-09-10T22:19:23.425Z,101078.44
2022-09-10T22:22:11.147Z,101078.94
2022-09-10T22:24:56.213Z,101077.19
2022-09-10T22:27:41.349Z,101079.53
2022-09-10T22:30:29.600Z,101077.75
2022-09-10T22:33:14.631Z,101083.13
2022-09-10T22:36:16.728Z,101085.28
2022-09-10T22:39:20.944Z,101085.97
2022-09-10T22:42:07.457Z,101092.22
2022-09-10T22:44:53.140Z,101092.13
2022-09-10T22:47:38.462Z,101101.78
2022-09-10T22:50:23.817Z,101100.28
2022-09-10T22:53:09.268Z,101100.06
2022-09-10T22:55:54.556Z,101106.88
2022-09-10T22:58:40.337Z,101104.25
2022-09-10T23:01:27.566Z,101112.09
2022-09-10T23:04:12.960Z,101116.91
2022-09-10T23:06:58.376Z,101123.34
2022-09-10T23:09:43.484Z,101119.66
2022-09-10T23:12:28.868Z,101123.50
2022-09-10T23:15:14.287Z,101130.31
2022-09-10T23:17:59.744Z,101127.84
2022-09-10T23:20:45.026Z,101141.09
2022-09-10T23:23:30.441Z,101143.47
2022-09-10T23:26:17.156Z,101136.38
2022-09-10T23:29:04.142Z,101148.16
2022-09-10T23:31:49.781Z,101144.75
2022-09-10T23:34:35.220Z,101156.22
2022-09-10T23:37:20.618Z,101160.97
2022-09-10T23:40:06.608Z,101152.28
2022-09-10T23:42:52.198Z,101154.63
2022-09-10T23:45:37.561Z,101155.69
2022-09-10T23:48:24.455Z,101162.28
2022-09-10T23:51:12.241Z,101168.78
2022-09-10T23:53:57.451Z,101162.84
2022-09-10T23:56:43.651Z,101162.91
2022-09-10T23:59:29.159Z,101162.91
